Marple Township, Pennsylvania
Current Conditions -  °F | °C
As of 9:54 PM on Friday 19 Dec 2014 (Local Time) from KPHL Reporting Station
Broken Clouds Broken Clouds  
Wind Chill: 28°   Ceiling: 3500
Heat Index: 34°   Visibility: 10mi
Dew Point: 21°   Wind: 7mph
Humidity: 59%   Direction: 340°NNW
Pressure: 30.22"   Gusts: NA
Location:  39.9737°N, 75.3608°W
Report Text: KPHL 200254Z 34006KT 10SM BKN035 01/M06 A3022 RMK AO2 SLP232 T00111061 53014
Loading
Personal Weather Stations






























Interactive Weather Map New forecast layout! Learn more

10-Day Weather Forecast

Advertisements
Track Severe Weather on mobile